createdAt,value
2022-10-05T00:00:25.529Z,70.94
2022-10-05T00:02:55.654Z,71.10
2022-10-05T00:05:35.194Z,70.58
2022-10-05T00:08:16.365Z,71.05
2022-10-05T00:10:47.518Z,70.68
2022-10-05T00:13:22.857Z,70.77
2022-10-05T00:15:53.860Z,70.42
2022-10-05T00:18:23.072Z,70.76
2022-10-05T00:20:51.021Z,70.62
2022-10-05T00:23:37.494Z,70.44
2022-10-05T00:26:22.782Z,70.31
2022-10-05T00:28:51.623Z,70.53
2022-10-05T00:31:33.559Z,70.54
2022-10-05T00:34:01.684Z,70.76
2022-10-05T00:36:29.758Z,70.23
2022-10-05T00:38:57.628Z,70.61
2022-10-05T00:41:31.248Z,70.26
2022-10-05T00:44:42.005Z,70.33
2022-10-05T00:47:28.110Z,69.81
2022-10-05T00:50:10.706Z,69.82
2022-10-05T00:53:07.010Z,69.54
2022-10-05T00:56:03.010Z,69.42
2022-10-05T00:58:49.523Z,69.58
2022-10-05T01:01:35.264Z,69.54
2022-10-05T01:04:09.148Z,69.46
2022-10-05T01:06:43.107Z,69.26
2022-10-05T01:09:32.953Z,69.11
2022-10-05T01:12:09.697Z,69.52
2022-10-05T01:14:55.160Z,68.59
2022-10-05T01:17:34.556Z,69.53
2022-10-05T01:20:15.442Z,69.07
2022-10-05T01:23:23.219Z,69.62
2022-10-05T01:26:54.612Z,69.35
2022-10-05T01:29:25.355Z,69.60
2022-10-05T01:32:14.367Z,69.70
2022-10-05T01:34:48.774Z,69.59
2022-10-05T01:37:41.595Z,69.41
2022-10-05T01:40:32.112Z,69.82
2022-10-05T01:43:22.625Z,69.74
2022-10-05T01:46:15.527Z,69.26
2022-10-05T01:49:18.449Z,69.22
2022-10-05T01:52:05.237Z,69.39
2022-10-05T01:54:45.277Z,68.85
2022-10-05T01:57:37.533Z,69.11
2022-10-05T02:00:12.960Z,69.43
2022-10-05T02:02:47.246Z,69.06
2022-10-05T02:05:20.415Z,68.72
2022-10-05T02:08:08.816Z,69.17
2022-10-05T02:10:56.706Z,69.23
2022-10-05T02:13:42.273Z,68.60
2022-10-05T02:16:22.550Z,68.21
2022-10-05T02:18:55.533Z,68.47
2022-10-05T02:21:25.839Z,68.32
2022-10-05T02:23:59.929Z,68.97
2022-10-05T02:26:28.512Z,68.71
2022-10-05T02:29:03.755Z,68.75
2022-10-05T02:32:03.928Z,68.85
2022-10-05T02:34:41.451Z,68.47
2022-10-05T02:37:12.848Z,68.31
2022-10-05T02:39:46.686Z,68.06
2022-10-05T02:42:29.698Z,68.27
2022-10-05T02:45:19.313Z,68.04
2022-10-05T02:48:00.573Z,67.89
2022-10-05T02:50:47.918Z,68.21
2022-10-05T02:53:24.804Z,68.21
2022-10-05T02:56:09.779Z,68.10
2022-10-05T02:59:05.683Z,68.23
2022-10-05T03:01:51.207Z,68.02
2022-10-05T03:04:27.864Z,68.58
2022-10-05T03:07:26.554Z,68.67
2022-10-05T03:10:23.714Z,68.41
2022-10-05T03:13:04.051Z,69.05
2022-10-05T03:15:41.970Z,68.90
2022-10-05T03:18:30.866Z,69.72
2022-10-05T03:21:16.024Z,69.86
2022-10-05T03:23:59.537Z,69.89
2022-10-05T03:26:51.641Z,70.23
2022-10-05T03:29:49.076Z,70.15
2022-10-05T03:32:39.826Z,70.21
2022-10-05T03:35:16.846Z,70.94
2022-10-05T03:38:12.754Z,70.68
2022-10-05T03:41:05.977Z,70.96
2022-10-05T03:43:51.444Z,71.29
2022-10-05T03:49:40.148Z,72.22
2022-10-05T03:52:14.823Z,72.35
2022-10-05T03:54:49.802Z,72.30
2022-10-05T03:57:37.546Z,73.09
2022-10-05T04:00:28.392Z,72.94
2022-10-05T04:03:11.439Z,73.15
2022-10-05T04:05:44.580Z,73.45
2022-10-05T04:08:26.025Z,73.28
2022-10-05T04:10:58.133Z,73.62
2022-10-05T04:13:51.326Z,74.50
2022-10-05T04:16:22.309Z,74.30
2022-10-05T04:19:17.598Z,74.16
2022-10-05T04:22:08.660Z,74.47
2022-10-05T04:25:04.225Z,74.72
2022-10-05T04:27:40.498Z,74.93
2022-10-05T04:30:13.384Z,75.54
2022-10-05T04:32:50.534Z,75.54
2022-10-05T04:35:50.720Z,75.70
2022-10-05T04:38:45.517Z,75.99
2022-10-05T04:41:31.837Z,75.81
2022-10-05T04:44:22.469Z,75.91
2022-10-05T04:47:22.570Z,76.59
2022-10-05T04:50:18.645Z,77.18
2022-10-05T04:52:59.109Z,76.42
2022-10-05T04:55:39.310Z,77.35
2022-10-05T04:58:42.241Z,77.36
2022-10-05T05:01:19.426Z,77.65
2022-10-05T05:04:02.746Z,77.88
2022-10-05T05:06:43.746Z,77.64
2022-10-05T05:09:32.054Z,78.40
2022-10-05T05:12:05.726Z,77.79
2022-10-05T05:14:36.781Z,78.27
2022-10-05T05:17:46.218Z,78.68
2022-10-05T05:20:38.827Z,78.80
2022-10-05T05:23:11.606Z,78.94
2022-10-05T05:26:11.648Z,78.95
2022-10-05T05:28:46.027Z,78.86
2022-10-05T05:31:24.824Z,79.21
2022-10-05T05:34:11.157Z,79.26
2022-10-05T05:37:13.038Z,79.36
2022-10-05T05:40:18.315Z,79.95
2022-10-05T05:43:00.193Z,80.08
2022-10-05T05:45:51.939Z,79.94
2022-10-05T05:48:36.235Z,80.10
2022-10-05T05:51:41.108Z,80.10
2022-10-05T05:54:30.709Z,79.91
2022-10-05T05:57:10.586Z,80.55
2022-10-05T05:59:41.074Z,80.30
2022-10-05T06:02:18.143Z,80.56
2022-10-05T06:05:10.663Z,80.72
2022-10-05T06:07:40.429Z,80.20
2022-10-05T06:10:30.059Z,80.83
2022-10-05T06:13:04.810Z,81.01
2022-10-05T06:15:41.812Z,80.93
2022-10-05T06:18:16.284Z,80.91
2022-10-05T06:20:53.071Z,81.14
2022-10-05T06:23:47.104Z,81.49
2022-10-05T06:26:18.496Z,81.14
2022-10-05T06:28:54.067Z,81.38
2022-10-05T06:31:58.755Z,81.38
2022-10-05T06:34:52.383Z,81.75
2022-10-05T06:37:32.420Z,81.60
2022-10-05T06:40:12.462Z,81.83
2022-10-05T06:43:16.545Z,81.92
2022-10-05T06:45:47.656Z,81.99
2022-10-05T06:48:29.456Z,82.24
2022-10-05T06:51:16.532Z,82.23
2022-10-05T06:53:59.349Z,82.15
2022-10-05T06:56:45.251Z,82.42
2022-10-05T06:59:25.603Z,82.26
2022-10-05T07:01:59.117Z,82.73
2022-10-05T07:04:48.217Z,82.54
2022-10-05T07:07:38.549Z,82.71
2022-10-05T07:10:44.646Z,82.48
2022-10-05T07:13:30.806Z,82.65
2022-10-05T07:16:33.613Z,83.21
2022-10-05T07:19:43.103Z,82.97
2022-10-05T07:22:34.233Z,82.92
2022-10-05T07:25:18.724Z,83.18
2022-10-05T07:27:57.622Z,82.83
2022-10-05T07:30:25.742Z,82.92
2022-10-05T07:33:07.092Z,83.17
2022-10-05T07:36:20.911Z,83.39
2022-10-05T07:39:10.980Z,83.24
2022-10-05T07:42:19.784Z,83.67
2022-10-05T07:48:17.198Z,83.21
2022-10-05T07:51:21.676Z,83.08
2022-10-05T07:54:13.541Z,83.35
2022-10-05T07:56:51.141Z,84.00
2022-10-05T07:59:59.565Z,83.33
2022-10-05T08:02:46.099Z,83.60
2022-10-05T08:05:35.765Z,83.44
2022-10-05T09:44:22.231Z,78.70
2022-10-05T09:47:31.441Z,80.02
2022-10-05T09:50:25.627Z,80.60
2022-10-05T09:53:23.936Z,81.04
2022-10-05T09:56:10.417Z,81.98
2022-10-05T09:58:56.425Z,82.62
2022-10-05T10:01:38.320Z,82.40
2022-10-05T10:04:19.717Z,83.44
2022-10-05T10:07:22.388Z,83.42
2022-10-05T10:10:54.721Z,84.00
2022-10-05T10:13:46.439Z,84.24
2022-10-05T10:16:46.793Z,84.30
2022-10-05T10:19:58.057Z,84.73
2022-10-05T10:22:46.138Z,84.78
2022-10-05T10:25:32.711Z,85.03
2022-10-05T10:28:39.040Z,84.71
2022-10-05T10:31:39.553Z,84.75
2022-10-05T10:34:25.735Z,84.66
2022-10-05T10:40:23.935Z,85.45
2022-10-05T10:43:20.276Z,84.74
2022-10-05T10:45:57.382Z,85.37
2022-10-05T10:48:31.528Z,85.29
2022-10-05T10:51:20.690Z,84.91
2022-10-05T10:54:15.095Z,85.58
2022-10-05T10:56:59.429Z,85.82
2022-10-05T11:00:08.395Z,85.21
2022-10-05T11:02:50.878Z,85.48
2022-10-05T11:05:47.931Z,85.14
2022-10-05T11:08:47.652Z,85.44
2022-10-05T11:12:11.351Z,85.09
2022-10-05T11:15:30.062Z,85.60
2022-10-05T11:18:07.209Z,85.30
2022-10-05T11:20:53.474Z,85.51
2022-10-05T11:23:47.255Z,85.80
2022-10-05T11:26:18.196Z,85.56
2022-10-05T11:29:02.737Z,85.30
2022-10-05T11:31:37.649Z,85.98
2022-10-05T11:34:12.211Z,85.93
2022-10-05T11:36:52.165Z,85.55
2022-10-05T11:40:01.375Z,86.04
2022-10-05T11:42:49.574Z,86.07
2022-10-05T11:45:27.355Z,86.33
2022-10-05T11:48:11.748Z,85.77
2022-10-05T11:51:17.082Z,85.87
2022-10-05T11:54:18.160Z,85.73
2022-10-05T11:56:53.904Z,85.84
2022-10-05T11:59:50.052Z,85.86
2022-10-05T12:02:44.737Z,85.59
2022-10-05T12:05:44.850Z,85.78
2022-10-05T12:08:35.453Z,85.63
2022-10-05T12:11:13.815Z,85.79
2022-10-05T12:13:56.796Z,85.42
2022-10-05T12:17:08.166Z,85.61
2022-10-05T12:19:42.810Z,85.59
2022-10-05T12:22:28.151Z,85.67
2022-10-05T12:25:35.631Z,85.98
2022-10-05T12:28:14.978Z,85.79
2022-10-05T12:31:28.224Z,86.06
2022-10-05T12:34:14.335Z,85.74
2022-10-05T12:37:06.257Z,85.81
2022-10-05T12:39:48.870Z,85.37
2022-10-05T12:42:44.504Z,85.56
2022-10-05T12:45:20.891Z,85.63
2022-10-05T12:47:55.895Z,85.72
2022-10-05T12:50:32.831Z,85.32
2022-10-05T12:53:26.596Z,85.73
2022-10-05T12:56:03.463Z,85.83
2022-10-05T12:59:02.070Z,85.72
2022-10-05T13:01:34.670Z,85.81
2022-10-05T13:04:22.143Z,86.04
2022-10-05T13:07:19.154Z,85.45
2022-10-05T13:10:30.661Z,85.95
2022-10-05T13:13:04.517Z,85.42
2022-10-05T13:15:34.631Z,85.95
2022-10-05T13:18:12.640Z,85.83
2022-10-05T13:20:55.884Z,85.97
2022-10-05T13:23:35.816Z,85.67
2022-10-05T13:26:13.531Z,85.67
2022-10-05T13:29:04.384Z,85.53
2022-10-05T13:31:32.420Z,85.85
2022-10-05T13:34:20.564Z,85.29
2022-10-05T13:36:48.606Z,85.52
2022-10-05T13:39:35.345Z,85.69
2022-10-05T13:42:36.007Z,85.58
2022-10-05T13:45:24.749Z,85.48
2022-10-05T13:48:02.877Z,85.41
2022-10-05T13:50:39.101Z,85.44
2022-10-05T13:53:29.759Z,85.38
2022-10-05T13:56:11.535Z,84.96
2022-10-05T13:58:55.561Z,84.95
2022-10-05T14:01:33.342Z,85.24
2022-10-05T14:04:43.157Z,85.39
2022-10-05T14:07:24.279Z,85.21
2022-10-05T14:09:52.735Z,85.14
2022-10-05T14:12:23.315Z,85.17
2022-10-05T14:14:55.629Z,85.07
2022-10-05T14:17:45.427Z,85.00
2022-10-05T14:20:59.215Z,85.14
2022-10-05T14:23:27.973Z,85.26
2022-10-05T14:25:56.769Z,85.63
2022-10-05T14:28:36.792Z,85.54
2022-10-05T14:31:27.613Z,84.82
2022-10-05T14:33:57.591Z,85.39
2022-10-05T14:36:44.534Z,85.25
2022-10-05T14:39:15.482Z,85.53
2022-10-05T14:41:49.759Z,85.12
2022-10-05T14:44:36.804Z,85.19
2022-10-05T14:47:25.139Z,84.91
2022-10-05T14:50:14.871Z,85.31
2022-10-05T14:52:50.979Z,85.18
2022-10-05T14:55:31.429Z,84.71
2022-10-05T14:58:25.083Z,85.46
2022-10-05T15:01:04.660Z,84.60
2022-10-05T15:03:32.386Z,84.78
2022-10-05T15:06:02.794Z,84.54
2022-10-05T15:08:42.981Z,84.70
2022-10-05T15:11:43.280Z,84.51
2022-10-05T15:14:43.540Z,84.51
2022-10-05T15:17:26.865Z,84.78
2022-10-05T15:20:19.606Z,84.31
2022-10-05T15:23:00.082Z,84.53
2022-10-05T15:25:53.385Z,85.12
2022-10-05T15:28:40.417Z,84.39
2022-10-05T15:31:28.344Z,84.49
2022-10-05T15:34:27.146Z,84.81
2022-10-05T15:37:26.575Z,84.27
2022-10-05T15:40:03.664Z,84.32
2022-10-05T15:42:44.573Z,84.50
2022-10-05T15:45:33.268Z,84.12
2022-10-05T15:48:42.129Z,84.23
2022-10-05T15:51:17.431Z,84.20
2022-10-05T15:54:15.189Z,84.04
2022-10-05T15:57:09.830Z,84.43
2022-10-05T16:00:00.150Z,84.79
2022-10-05T16:02:42.264Z,84.76
2022-10-05T16:05:58.997Z,84.41
2022-10-05T16:08:56.929Z,84.27
2022-10-05T16:12:01.260Z,84.22
2022-10-05T16:14:43.417Z,84.63
2022-10-05T16:17:34.505Z,84.22
2022-10-05T16:20:29.580Z,83.76
2022-10-05T16:23:19.386Z,84.32
2022-10-05T16:25:59.634Z,84.39
2022-10-05T16:29:15.606Z,83.75
2022-10-05T16:32:03.360Z,84.15
2022-10-05T16:34:50.670Z,83.98
2022-10-05T16:37:57.179Z,84.61
2022-10-05T16:40:30.042Z,84.44
2022-10-05T16:43:04.215Z,83.83
2022-10-05T16:46:10.157Z,84.08
2022-10-05T16:51:57.901Z,84.37
2022-10-05T16:54:32.885Z,84.03
2022-10-05T16:57:06.529Z,83.45
2022-10-05T16:59:56.706Z,83.62
2022-10-05T17:02:51.754Z,83.56
2022-10-05T17:05:29.610Z,83.60
2022-10-05T17:08:27.070Z,83.42
2022-10-05T17:11:26.073Z,83.65
2022-10-05T17:14:07.980Z,83.91
2022-10-05T17:17:01.816Z,84.17
2022-10-05T17:19:40.094Z,83.37
2022-10-05T17:22:23.316Z,83.48
2022-10-05T17:25:27.414Z,83.61
2022-10-05T17:28:17.278Z,83.55
2022-10-05T17:31:03.899Z,84.03
2022-10-05T17:33:33.692Z,83.86
2022-10-05T17:36:05.349Z,83.34
2022-10-05T17:38:39.003Z,83.85
2022-10-05T17:41:13.135Z,83.44
2022-10-05T17:43:41.960Z,83.67
2022-10-05T17:46:13.230Z,84.00
2022-10-05T17:48:50.322Z,83.98
2022-10-05T17:51:49.700Z,83.09
2022-10-05T17:54:42.048Z,83.59
2022-10-05T17:57:11.547Z,83.14
2022-10-05T17:59:56.390Z,83.22
2022-10-05T18:02:36.696Z,83.59
2022-10-05T18:05:05.254Z,83.55
2022-10-05T18:07:38.374Z,83.65
2022-10-05T18:10:12.381Z,83.18
2022-10-05T18:12:48.587Z,82.96
2022-10-05T18:15:49.056Z,82.97
2022-10-05T18:18:59.665Z,82.96
2022-10-05T18:21:34.984Z,82.91
2022-10-05T18:24:39.001Z,82.89
2022-10-05T18:27:18.593Z,83.12
2022-10-05T18:30:09.645Z,83.05
2022-10-05T18:32:55.781Z,82.93
2022-10-05T18:35:49.032Z,83.31
2022-10-05T18:38:25.966Z,82.91
2022-10-05T18:41:28.399Z,83.02
2022-10-05T18:44:14.469Z,83.36
2022-10-05T18:46:53.572Z,83.01
2022-10-05T18:49:53.111Z,82.29
2022-10-05T18:52:57.254Z,82.62
2022-10-05T18:55:42.284Z,82.98
2022-10-05T18:58:10.946Z,82.68
2022-10-05T19:00:41.884Z,82.34
2022-10-05T19:03:50.493Z,82.95
2022-10-05T19:06:30.486Z,82.66
2022-10-05T19:09:32.367Z,82.65
2022-10-05T19:12:03.360Z,82.33
2022-10-05T19:14:50.608Z,82.95
2022-10-05T19:17:30.168Z,82.83
2022-10-05T19:20:19.050Z,82.69
2022-10-05T19:23:34.051Z,82.96
2022-10-05T19:26:20.273Z,82.52
2022-10-05T19:29:12.450Z,82.75
2022-10-05T19:31:58.244Z,82.70
2022-10-05T19:34:44.509Z,82.38
2022-10-05T19:37:32.710Z,82.54
2022-10-05T19:40:31.284Z,83.21
2022-10-05T19:43:18.545Z,82.42
2022-10-05T19:46:17.689Z,82.31
2022-10-05T19:48:55.174Z,82.54
2022-10-05T19:51:29.450Z,82.97
2022-10-05T19:54:02.990Z,82.61
2022-10-05T19:56:35.185Z,82.66
2022-10-05T19:59:18.511Z,83.20
2022-10-05T20:01:56.139Z,83.04
2022-10-05T20:04:46.211Z,82.40
2022-10-05T20:07:22.176Z,82.86
2022-10-05T20:09:59.915Z,82.93
2022-10-05T20:12:54.934Z,83.08
2022-10-05T20:15:46.362Z,82.63
2022-10-05T20:18:58.075Z,82.51
2022-10-05T20:21:48.266Z,82.55
2022-10-05T20:24:26.436Z,82.86
2022-10-05T20:27:05.735Z,82.63
2022-10-05T20:29:36.121Z,82.69
2022-10-05T20:32:12.261Z,82.32
2022-10-05T20:34:45.696Z,82.45
2022-10-05T20:37:17.690Z,82.40
2022-10-05T20:39:45.936Z,82.43
2022-10-05T20:42:14.651Z,82.59
2022-10-05T20:44:42.847Z,82.71
2022-10-05T20:47:11.420Z,82.65
2022-10-05T20:49:41.665Z,82.93
2022-10-05T20:52:13.595Z,82.92
2022-10-05T20:54:41.913Z,82.50
2022-10-05T20:57:11.050Z,82.57
2022-10-05T20:59:39.998Z,82.47
2022-10-05T21:02:08.042Z,82.80
2022-10-05T21:04:40.589Z,82.36
2022-10-05T21:07:11.318Z,82.75
2022-10-05T21:09:41.648Z,82.70
2022-10-05T21:12:09.572Z,82.44
2022-10-05T21:14:39.521Z,82.58
2022-10-05T21:17:07.718Z,82.91
2022-10-05T21:19:40.090Z,82.63
2022-10-05T21:22:10.223Z,82.58
2022-10-05T21:24:40.366Z,82.83
2022-10-05T21:27:10.122Z,82.56
2022-10-05T21:29:44.400Z,82.73
2022-10-05T21:32:12.249Z,82.81
2022-10-05T21:34:41.831Z,82.38
2022-10-05T21:37:10.926Z,82.73
2022-10-05T21:39:38.896Z,82.45
2022-10-05T21:42:06.864Z,82.35
2022-10-05T21:44:35.021Z,82.49
2022-10-05T21:47:03.067Z,82.52
2022-10-05T21:49:31.747Z,82.26
2022-10-05T21:52:01.691Z,82.51
2022-10-05T21:54:29.732Z,81.99
2022-10-05T21:56:59.437Z,82.31
2022-10-05T21:59:28.976Z,82.49
2022-10-05T22:01:57.010Z,82.53
2022-10-05T22:04:24.981Z,82.42
2022-10-05T22:06:53.986Z,82.23
2022-10-05T22:09:21.952Z,82.56
2022-10-05T22:11:50.155Z,82.12
2022-10-05T22:14:18.401Z,81.95
2022-10-05T22:16:46.475Z,82.32
2022-10-05T22:19:19.595Z,82.61
2022-10-05T22:21:49.482Z,82.36
2022-10-05T22:24:17.473Z,82.45
2022-10-05T22:26:48.857Z,82.16
2022-10-05T22:29:21.357Z,82.16
2022-10-05T22:31:49.984Z,82.03
2022-10-05T22:34:18.914Z,82.50
2022-10-05T22:36:49.660Z,82.08
2022-10-05T22:39:18.408Z,82.45
2022-10-05T22:41:46.402Z,82.53
2022-10-05T22:44:16.223Z,81.97
2022-10-05T22:46:44.469Z,82.38
2022-10-05T22:49:12.399Z,81.91
2022-10-05T22:51:40.624Z,82.11
2022-10-05T22:54:08.631Z,82.40
2022-10-05T22:56:36.559Z,82.30
2022-10-05T22:59:05.476Z,81.80
2022-10-05T23:01:33.459Z,82.44
2022-10-05T23:04:01.457Z,82.12
2022-10-05T23:06:30.885Z,82.08
2022-10-05T23:08:58.877Z,82.38
2022-10-05T23:11:29.362Z,81.95
2022-10-05T23:13:59.513Z,82.50
2022-10-05T23:16:29.203Z,82.34
2022-10-05T23:18:57.012Z,82.50
2022-10-05T23:21:28.005Z,81.92
2022-10-05T23:23:56.714Z,82.38
2022-10-05T23:26:26.747Z,81.92
2022-10-05T23:28:55.938Z,82.21
2022-10-05T23:31:26.973Z,82.54
2022-10-05T23:33:55.191Z,82.60
2022-10-05T23:36:26.995Z,82.14
2022-10-05T23:38:55.606Z,82.29
2022-10-05T23:41:24.428Z,82.50
2022-10-05T23:43:55.682Z,82.54
2022-10-05T23:46:24.023Z,82.05
2022-10-05T23:48:54.000Z,82.38
2022-10-05T23:51:24.413Z,82.04
2022-10-05T23:53:52.456Z,82.39
2022-10-05T23:56:20.659Z,82.34
2022-10-05T23:58:49.019Z,82.27
